Time;durP1;ratioP1;P1;durP2;ratioP2;P2;SDS_P1;SDS_P2;PMS_P1;PMS_P2;Temp;Humidity;BMP_temperature;BMP_pressure;BME280_temperature;BME280_humidity;BME280_pressure;Samples;Min_cycle;Max_cycle;Signal;HPM_P1;HPM_P2
2024/01/15 00:00:54;;;;;;;12.87;9.30;;;;;;;2.87;100.00;95680.94;5098241;28;20517;-60
2024/01/15 00:03:23;;;;;;;13.40;9.83;;;;;;;2.85;100.00;95672.41;5100883;28;20292;-61
2024/01/15 00:05:50;;;;;;;15.43;10.47;;;;;;;2.78;100.00;95660.78;5099663;28;20241;-61
2024/01/15 00:08:17;;;;;;;16.67;11.90;;;;;;;2.70;100.00;95657.94;5100253;28;20229;-61
2024/01/15 00:10:44;;;;;;;17.43;11.50;;;;;;;2.66;100.00;95635.63;5099671;28;20320;-60
2024/01/15 00:13:10;;;;;;;18.07;11.73;;;;;;;2.63;100.00;95635.88;5101157;28;20536;-61
2024/01/15 00:15:37;;;;;;;15.03;10.87;;;;;;;2.60;100.00;95630.88;5098322;28;20203;-61
2024/01/15 00:18:05;;;;;;;16.20;10.83;;;;;;;2.65;100.00;95631.38;5099813;28;20205;-61
2024/01/15 00:20:32;;;;;;;13.93;10.57;;;;;;;2.64;100.00;95632.31;5100930;28;20205;-59
2024/01/15 00:22:58;;;;;;;13.33;10.00;;;;;;;2.67;100.00;95637.28;5099571;28;20308;-61
2024/01/15 00:25:26;;;;;;;15.60;10.27;;;;;;;2.58;100.00;95631.97;5099983;28;20202;-61
2024/01/15 00:27:53;;;;;;;22.07;12.43;;;;;;;2.65;100.00;95627.94;5102697;28;20212;-61
2024/01/15 00:30:19;;;;;;;15.30;9.27;;;;;;;2.70;100.00;95624.00;5102258;28;20224;-61
2024/01/15 00:32:46;;;;;;;10.17;7.13;;;;;;;2.74;100.00;95624.59;5102842;28;20209;-61
2024/01/15 00:35:14;;;;;;;10.23;8.20;;;;;;;2.80;100.00;95626.72;5102357;28;20213;-60
2024/01/15 00:37:41;;;;;;;11.37;8.20;;;;;;;2.78;100.00;95639.91;5103014;28;20590;-61
2024/01/15 00:40:08;;;;;;;13.33;9.33;;;;;;;2.78;100.00;95644.28;5103695;28;21379;-61
2024/01/15 00:42:35;;;;;;;18.87;10.97;;;;;;;2.87;100.00;95654.81;5103081;28;20212;-62
2024/01/15 00:45:05;;;;;;;14.63;11.03;;;;;;;2.87;100.00;95648.81;5104057;28;20212;-61
2024/01/15 00:47:31;;;;;;;14.80;10.73;;;;;;;2.80;100.00;95643.19;5103800;28;20198;-62
2024/01/15 00:49:58;;;;;;;17.43;11.97;;;;;;;2.75;100.00;95641.91;5103347;28;20228;-61
2024/01/15 00:52:26;;;;;;;13.93;10.07;;;;;;;2.77;100.00;95638.22;5102405;28;20205;-61
2024/01/15 00:54:53;;;;;;;12.20;8.90;;;;;;;2.78;100.00;95645.13;5103889;27;20220;-61
2024/01/15 00:57:20;;;;;;;11.37;8.47;;;;;;;2.78;100.00;95633.84;5103907;28;20205;-61
2024/01/15 00:59:48;;;;;;;11.23;8.40;;;;;;;2.77;100.00;95637.38;5104023;28;20204;-61
2024/01/15 01:02:15;;;;;;;10.57;8.23;;;;;;;2.76;100.00;95647.03;5102765;27;20201;-61
2024/01/15 01:04:41;;;;;;;11.60;9.07;;;;;;;2.73;100.00;95634.19;5104241;27;20312;-61
2024/01/15 01:07:08;;;;;;;14.27;9.60;;;;;;;2.75;100.00;95639.31;5102242;28;20229;-62
2024/01/15 01:09:36;;;;;;;11.33;8.97;;;;;;;2.76;100.00;95636.59;5103182;28;20312;-61
2024/01/15 01:12:03;;;;;;;12.93;9.17;;;;;;;2.86;100.00;95647.13;5103901;28;20201;-61
2024/01/15 01:14:29;;;;;;;12.43;9.30;;;;;;;2.99;100.00;95655.66;5101547;27;20247;-61
2024/01/15 01:16:56;;;;;;;12.03;8.17;;;;;;;3.05;100.00;95649.13;5103230;28;20206;-61
2024/01/15 01:19:22;;;;;;;11.27;8.80;;;;;;;2.92;100.00;95660.53;5102124;28;20641;-60
2024/01/15 01:21:50;;;;;;;20.50;12.97;;;;;;;2.84;100.00;95669.91;5102813;28;20209;-61
2024/01/15 01:24:17;;;;;;;17.70;12.50;;;;;;;2.70;100.00;95667.53;5102444;28;20197;-61
2024/01/15 01:26:46;;;;;;;17.40;12.20;;;;;;;2.53;100.00;95668.84;5101361;28;20205;-61
2024/01/15 01:29:13;;;;;;;15.40;11.73;;;;;;;2.17;100.00;95669.88;5103621;28;20293;-61
2024/01/15 01:31:43;;;;;;;15.20;11.17;;;;;;;2.19;100.00;95677.59;5102529;28;20295;-61
2024/01/15 01:34:10;;;;;;;17.20;12.83;;;;;;;2.11;100.00;95679.94;5101936;28;20204;-61
2024/01/15 01:36:37;;;;;;;17.03;11.60;;;;;;;2.09;100.00;95676.63;5100763;28;20288;-61
2024/01/15 01:39:03;;;;;;;16.40;11.97;;;;;;;1.96;100.00;95672.31;5102120;27;20682;-61
2024/01/15 01:41:30;;;;;;;16.23;11.80;;;;;;;1.93;100.00;95669.94;5102842;28;20585;-61
2024/01/15 01:43:58;;;;;;;15.87;11.60;;;;;;;1.84;100.00;95667.19;5102677;28;21297;-62
2024/01/15 01:46:25;;;;;;;15.17;12.10;;;;;;;1.84;100.00;95673.22;5103040;28;20293;-61
2024/01/15 01:48:52;;;;;;;16.30;12.00;;;;;;;1.76;100.00;95680.81;5104181;28;20293;-61
2024/01/15 01:51:19;;;;;;;17.43;12.17;;;;;;;1.86;100.00;95683.53;5105076;28;20293;-61
2024/01/15 01:53:45;;;;;;;18.03;11.70;;;;;;;1.80;100.00;95677.03;5108204;28;20244;-61
2024/01/15 01:56:13;;;;;;;15.83;12.27;;;;;;;1.66;100.00;95678.97;5105549;28;20202;-60
2024/01/15 01:58:39;;;;;;;16.53;12.30;;;;;;;1.60;100.00;95688.06;5103772;27;20519;-61
2024/01/15 02:01:07;;;;;;;17.90;13.27;;;;;;;1.58;100.00;95692.56;5101920;28;20197;-61
2024/01/15 02:03:34;;;;;;;18.03;12.63;;;;;;;1.67;100.00;95702.31;5101182;28;20197;-61
2024/01/15 02:06:01;;;;;;;18.53;13.50;;;;;;;1.58;100.00;95703.00;5104709;28;20813;-61
2024/01/15 02:08:28;;;;;;;24.50;15.67;;;;;;;1.45;100.00;95708.25;5101538;28;20205;-61
2024/01/15 02:10:54;;;;;;;22.27;14.70;;;;;;;1.48;100.00;95697.63;5102843;28;20201;-61
2024/01/15 02:13:21;;;;;;;24.10;15.53;;;;;;;1.48;100.00;95702.00;5103278;28;20210;-61
2024/01/15 02:15:48;;;;;;;23.67;15.73;;;;;;;1.38;100.00;95693.19;5102862;28;20202;-62
2024/01/15 02:18:17;;;;;;;23.60;15.87;;;;;;;1.31;100.00;95695.38;5103060;28;20289;-61
2024/01/15 02:20:44;;;;;;;23.20;15.80;;;;;;;1.30;100.00;95692.91;5102889;28;20198;-61
2024/01/15 02:23:13;;;;;;;23.70;15.63;;;;;;;1.32;100.00;95694.44;5100351;28;20220;-61
2024/01/15 02:25:40;;;;;;;23.77;15.67;;;;;;;1.27;100.00;95686.16;5100584;28;20626;-61
2024/01/15 02:28:10;;;;;;;26.33;16.70;;;;;;;1.39;100.00;95687.84;5101538;28;20197;-61
2024/01/15 02:30:39;;;;;;;26.23;16.27;;;;;;;1.33;100.00;95680.50;5100592;28;20235;-61
2024/01/15 02:33:06;;;;;;;25.93;17.53;;;;;;;1.28;100.00;95689.56;5101237;28;20209;-60
2024/01/15 02:35:33;;;;;;;28.13;17.20;;;;;;;1.32;100.00;95693.59;5101650;28;20305;-61
2024/01/15 02:37:59;;;;;;;28.07;16.63;;;;;;;1.30;100.00;95687.69;5101579;28;20292;-61
2024/01/15 02:40:27;;;;;;;27.67;17.47;;;;;;;1.37;100.00;95694.13;5101568;28;20627;-61
2024/01/15 02:42:54;;;;;;;31.43;18.27;;;;;;;1.34;100.00;95695.19;5101744;27;20220;-61
2024/01/15 02:45:21;;;;;;;29.63;18.70;;;;;;;1.32;100.00;95688.41;5102227;27;20539;-62
2024/01/15 02:47:47;;;;;;;30.37;17.97;;;;;;;1.24;100.00;95694.16;5100408;28;20212;-62
2024/01/15 02:50:14;;;;;;;33.60;19.03;;;;;;;1.24;100.00;95693.34;5099837;28;20243;-62
2024/01/15 02:52:41;;;;;;;30.77;18.63;;;;;;;1.30;100.00;95698.94;5100885;28;20208;-61
2024/01/15 02:55:08;;;;;;;33.17;18.83;;;;;;;1.24;100.00;95703.75;5099692;28;20300;-61
2024/01/15 02:57:36;;;;;;;29.10;17.60;;;;;;;1.18;100.00;95699.81;5101064;28;20328;-61
2024/01/15 03:00:03;;;;;;;33.70;19.63;;;;;;;1.17;100.00;95692.94;5100412;28;20296;-61
2024/01/15 03:02:31;;;;;;;31.70;18.77;;;;;;;1.29;100.00;95688.63;5102162;28;20244;-61
2024/01/15 03:04:57;;;;;;;32.90;18.00;;;;;;;1.43;100.00;95694.50;5100701;28;20225;-62
2024/01/15 03:07:24;;;;;;;29.23;17.57;;;;;;;1.56;100.00;95699.66;5101688;28;20613;-61
2024/01/15 03:09:51;;;;;;;28.50;17.57;;;;;;;1.53;100.00;95699.88;5100671;28;20248;-61
2024/01/15 03:12:18;;;;;;;28.60;17.67;;;;;;;1.54;100.00;95691.13;5101027;28;20201;-61
2024/01/15 03:14:46;;;;;;;26.20;16.73;;;;;;;1.57;100.00;95692.66;5100382;28;20206;-61
2024/01/15 03:17:13;;;;;;;27.07;16.70;;;;;;;1.49;100.00;95683.63;5101614;28;20211;-60
2024/01/15 03:19:39;;;;;;;26.27;16.83;;;;;;;1.50;100.00;95679.25;5100484;28;20194;-61
2024/01/15 03:22:08;;;;;;;28.23;17.00;;;;;;;1.54;100.00;95677.25;5100384;28;20209;-60
2024/01/15 03:24:34;;;;;;;25.63;16.23;;;;;;;1.55;100.00;95669.34;5100505;28;20206;-61
2024/01/15 03:27:02;;;;;;;26.80;15.90;;;;;;;1.53;100.00;95666.00;5102254;28;20596;-60
2024/01/15 03:29:29;;;;;;;26.37;16.70;;;;;;;1.70;100.00;95672.59;5098963;28;20257;-61
2024/01/15 03:31:57;;;;;;;29.23;17.17;;;;;;;1.61;100.00;95676.72;5100864;28;20666;-61
2024/01/15 03:34:23;;;;;;;24.10;15.20;;;;;;;1.63;100.00;95674.81;5099666;28;20614;-62
2024/01/15 03:36:50;;;;;;;23.47;15.77;;;;;;;1.62;100.00;95672.31;5099081;28;20209;-60
2024/01/15 03:39:17;;;;;;;23.20;13.93;;;;;;;1.65;100.00;95670.31;5099977;28;20281;-65
2024/01/15 03:41:43;;;;;;;23.23;14.77;;;;;;;1.64;100.00;95663.44;5099827;28;20197;-62
2024/01/15 03:44:10;;;;;;;22.37;14.37;;;;;;;1.67;100.00;95658.00;5101527;28;20201;-62
2024/01/15 03:46:36;;;;;;;23.63;15.13;;;;;;;1.56;100.00;95663.16;5100818;27;20202;-61
2024/01/15 03:49:04;;;;;;;20.30;13.23;;;;;;;1.63;100.00;95659.16;5099241;28;20296;-61
2024/01/15 03:51:31;;;;;;;22.80;13.87;;;;;;;1.52;100.00;95653.94;5100897;28;20215;-62
2024/01/15 03:53:57;;;;;;;20.37;13.33;;;;;;;1.54;100.00;95661.63;5099714;28;20333;-61
2024/01/15 03:56:24;;;;;;;19.90;13.37;;;;;;;1.54;100.00;95659.84;5100126;28;20220;-61
2024/01/15 03:58:50;;;;;;;21.27;13.93;;;;;;;1.47;100.00;95661.25;5101324;28;20281;-62
2024/01/15 04:01:17;;;;;;;19.77;12.90;;;;;;;1.51;100.00;95660.09;5102782;28;20200;-61
2024/01/15 04:03:43;;;;;;;16.90;11.97;;;;;;;1.45;100.00;95655.34;5104802;28;20211;-61
2024/01/15 04:06:11;;;;;;;19.23;13.10;;;;;;;1.49;100.00;95659.34;5100111;28;20340;-61
2024/01/15 04:08:38;;;;;;;20.70;13.43;;;;;;;1.52;100.00;95648.72;5099481;28;20201;-61
2024/01/15 04:11:04;;;;;;;20.23;13.17;;;;;;;1.59;100.00;95655.16;5099658;28;20232;-61
2024/01/15 04:13:33;;;;;;;20.70;12.80;;;;;;;1.52;100.00;95651.34;5100497;28;20204;-61
2024/01/15 04:16:00;;;;;;;19.97;12.17;;;;;;;1.54;100.00;95646.84;5099197;28;21427;-61
2024/01/15 04:18:27;;;;;;;20.27;11.90;;;;;;;1.72;100.00;95642.03;5100555;28;20198;-61
2024/01/15 04:20:54;;;;;;;17.27;11.63;;;;;;;1.58;100.00;95645.66;5100205;28;20208;-62
2024/01/15 04:23:22;;;;;;;19.87;12.00;;;;;;;1.56;100.00;95639.72;5100060;28;20232;-61
2024/01/15 04:25:48;;;;;;;19.43;12.77;;;;;;;1.58;100.00;95642.22;5099606;28;20278;-62
2024/01/15 04:28:16;;;;;;;17.57;12.10;;;;;;;1.52;100.00;95646.94;5098419;28;20610;-61
2024/01/15 04:30:43;;;;;;;22.13;12.70;;;;;;;1.51;100.00;95644.47;5098697;28;20240;-60
2024/01/15 04:33:09;;;;;;;19.53;11.70;;;;;;;1.54;100.00;95639.03;5099883;28;20201;-62
2024/01/15 04:35:36;;;;;;;19.70;11.90;;;;;;;1.51;100.00;95647.06;5100122;28;20202;-62
2024/01/15 04:38:02;;;;;;;21.27;13.33;;;;;;;1.48;100.00;95629.91;5100150;28;20205;-62
2024/01/15 04:40:31;;;;;;;19.37;12.47;;;;;;;1.52;100.00;95642.69;5099173;28;20280;-61
2024/01/15 04:42:57;;;;;;;21.40;13.07;;;;;;;1.46;100.00;95652.59;5099839;28;20543;-62
2024/01/15 04:45:28;;;;;;;17.90;12.53;;;;;;;1.45;100.00;95650.13;5101019;28;20205;-62
2024/01/15 04:47:54;;;;;;;18.37;12.00;;;;;;;1.42;100.00;95655.53;5098686;28;20197;-62
2024/01/15 04:50:21;;;;;;;18.83;13.40;;;;;;;1.43;100.00;95649.38;5099203;28;20228;-62
2024/01/15 04:52:47;;;;;;;19.03;11.97;;;;;;;1.46;100.00;95641.34;5101313;28;20211;-61
2024/01/15 04:55:15;;;;;;;17.27;11.40;;;;;;;1.50;100.00;95640.19;5101577;28;20201;-62
2024/01/15 04:57:45;;;;;;;15.97;10.90;;;;;;;1.48;100.00;95632.50;5100250;28;20209;-62
2024/01/15 05:00:13;;;;;;;19.30;11.57;;;;;;;1.47;100.00;95635.19;5100174;28;20200;-62
2024/01/15 05:02:40;;;;;;;15.13;10.20;;;;;;;1.50;100.00;95632.38;5099869;28;20197;-62
2024/01/15 05:05:07;;;;;;;14.23;9.97;;;;;;;1.57;100.00;95644.00;5101117;28;20213;-61
2024/01/15 05:07:33;;;;;;;19.50;11.50;;;;;;;1.65;100.00;95641.66;5100860;28;20205;-63
2024/01/15 05:10:00;;;;;;;13.43;9.33;;;;;;;1.69;100.00;95640.50;5098563;28;20316;-62
2024/01/15 05:12:26;;;;;;;15.17;9.20;;;;;;;1.72;100.00;95642.88;5102461;28;20202;-62
2024/01/15 05:14:54;;;;;;;14.43;9.17;;;;;;;1.66;100.00;95648.56;5103749;28;20313;-62
2024/01/15 05:17:21;;;;;;;14.83;9.00;;;;;;;1.65;100.00;95646.88;5105377;28;20198;-62
2024/01/15 05:19:47;;;;;;;13.67;8.43;;;;;;;1.73;100.00;95635.88;5104824;28;20296;-61
2024/01/15 05:22:14;;;;;;;13.63;8.97;;;;;;;1.69;100.00;95648.31;5109282;28;20283;-62
2024/01/15 05:24:40;;;;;;;11.43;8.23;;;;;;;1.65;100.00;95636.47;5118200;27;20213;-61
2024/01/15 05:27:07;;;;;;;12.80;7.97;;;;;;;1.65;100.00;95633.84;5117766;28;20285;-61
2024/01/15 05:29:33;;;;;;;10.83;7.90;;;;;;;1.67;100.00;95621.53;5117216;28;20226;-62
2024/01/15 05:32:01;;;;;;;11.93;7.90;;;;;;;1.68;100.00;95630.19;5118757;28;20221;-64
2024/01/15 05:34:28;;;;;;;12.30;8.07;;;;;;;1.66;100.00;95632.91;5117616;28;20264;-62
2024/01/15 05:36:55;;;;;;;10.77;7.53;;;;;;;1.73;100.00;95634.13;5118106;28;20265;-62
2024/01/15 05:39:22;;;;;;;13.20;8.07;;;;;;;1.67;100.00;95629.34;5111906;28;20216;-61
2024/01/15 05:41:49;;;;;;;13.23;7.30;;;;;;;1.70;100.00;95634.31;5113544;27;20224;-62
2024/01/15 05:44:16;;;;;;;10.83;7.50;;;;;;;1.76;100.00;95640.88;5122522;28;20235;-61
2024/01/15 05:46:42;;;;;;;10.80;7.77;;;;;;;1.78;100.00;95641.56;5123597;28;20207;-61
2024/01/15 05:49:12;;;;;;;12.17;7.37;;;;;;;1.74;100.00;95634.91;5124737;28;20200;-61
2024/01/15 05:51:38;;;;;;;8.93;7.07;;;;;;;1.74;100.00;95633.16;5125414;28;20280;-63
2024/01/15 05:54:05;;;;;;;8.77;6.90;;;;;;;1.74;100.00;95634.91;5115745;28;21032;-62
2024/01/15 05:56:33;;;;;;;10.63;7.27;;;;;;;1.70;100.00;95634.31;5117568;27;20959;-61
2024/01/15 05:58:59;;;;;;;9.20;6.97;;;;;;;1.75;100.00;95632.22;5111355;28;20197;-61
2024/01/15 06:01:26;;;;;;;10.07;6.87;;;;;;;1.72;100.00;95635.06;5103553;28;20514;-62
2024/01/15 06:03:53;;;;;;;8.80;6.43;;;;;;;1.73;100.00;95634.13;5103717;28;20487;-61
2024/01/15 06:06:21;;;;;;;10.30;7.17;;;;;;;1.77;100.00;95638.13;5102768;28;20720;-62
2024/01/15 06:08:48;;;;;;;10.57;7.83;;;;;;;1.78;100.00;95631.97;5105497;28;20870;-62
2024/01/15 06:11:14;;;;;;;10.17;7.40;;;;;;;1.74;100.00;95640.97;5115634;28;20280;-63
2024/01/15 06:13:41;;;;;;;11.73;8.00;;;;;;;1.87;100.00;95639.13;5123483;27;20227;-60
2024/01/15 06:16:14;;;;;;;10.60;7.57;;;;;;;1.89;100.00;95633.78;5111030;28;20636;-62
2024/01/15 06:18:40;;;;;;;11.33;8.17;;;;;;;1.84;100.00;95630.72;5104032;28;20308;-62
2024/01/15 06:21:07;;;;;;;11.53;8.17;;;;;;;1.81;100.00;95616.13;5101177;28;20734;-62
2024/01/15 06:23:35;;;;;;;9.57;7.63;;;;;;;1.75;100.00;95621.78;5100745;28;20718;-62
2024/01/15 06:26:03;;;;;;;10.77;7.60;;;;;;;1.75;100.00;95626.16;5104539;27;20210;-60
2024/01/15 06:28:30;;;;;;;12.07;8.50;;;;;;;1.77;100.00;95624.31;5104756;27;21054;-62
2024/01/15 06:30:56;;;;;;;12.00;8.27;;;;;;;1.81;100.00;95630.91;5106690;28;20309;-62
2024/01/15 06:33:23;;;;;;;10.60;7.57;;;;;;;1.80;100.00;95627.50;5103887;28;20210;-62
2024/01/15 06:35:51;;;;;;;16.73;9.20;;;;;;;1.97;100.00;95632.28;5104177;28;20280;-61
2024/01/15 06:38:18;;;;;;;10.90;8.17;;;;;;;1.96;100.00;95622.78;5103360;28;20194;-61
2024/01/15 06:40:48;;;;;;;12.37;8.40;;;;;;;1.91;100.00;95630.09;5102777;27;20507;-62
2024/01/15 06:43:14;;;;;;;8.67;7.40;;;;;;;1.86;100.00;95621.00;5100962;28;20264;-61
2024/01/15 06:45:41;;;;;;;12.63;8.47;;;;;;;1.88;100.00;95626.91;5100778;28;20348;-62
2024/01/15 06:48:08;;;;;;;10.00;7.80;;;;;;;1.76;100.00;95618.25;5100981;28;20197;-61
2024/01/15 06:50:34;;;;;;;9.90;7.43;;;;;;;1.92;100.00;95617.91;5101375;27;20225;-62
2024/01/15 06:53:01;;;;;;;10.67;7.70;;;;;;;1.94;100.00;95616.88;5099961;28;20543;-62
2024/01/15 06:55:27;;;;;;;10.40;7.13;;;;;;;1.89;100.00;95613.78;5102108;27;20263;-62
2024/01/15 06:57:56;;;;;;;9.40;7.40;;;;;;;1.96;100.00;95620.19;5101640;27;20207;-61
2024/01/15 07:00:22;;;;;;;9.53;7.40;;;;;;;2.05;100.00;95617.84;5101105;28;20194;-64
2024/01/15 07:02:49;;;;;;;8.00;6.60;;;;;;;2.00;100.00;95631.22;5102281;27;20209;-61
2024/01/15 07:05:16;;;;;;;8.73;6.60;;;;;;;2.00;100.00;95626.81;5102515;27;20232;-61
2024/01/15 07:07:42;;;;;;;9.17;6.80;;;;;;;2.07;100.00;95616.75;5101965;27;20193;-60
2024/01/15 07:10:10;;;;;;;7.77;6.27;;;;;;;1.99;100.00;95622.56;5102250;28;20205;-61
2024/01/15 07:12:36;;;;;;;10.70;7.10;;;;;;;1.94;100.00;95611.66;5101935;27;20258;-61
2024/01/15 07:15:06;;;;;;;8.30;6.77;;;;;;;1.98;100.00;95615.66;5099523;28;20653;-61
2024/01/15 07:17:33;;;;;;;8.77;6.47;;;;;;;1.99;100.00;95614.72;5102273;28;20205;-59
2024/01/15 07:20:00;;;;;;;8.60;6.10;;;;;;;1.99;100.00;95614.72;5101171;28;20204;-60
2024/01/15 07:22:26;;;;;;;6.50;5.53;;;;;;;2.08;100.00;95620.19;5101379;28;20316;-60
2024/01/15 07:24:54;;;;;;;7.03;5.93;;;;;;;2.04;100.00;95623.97;5105137;28;20201;-61
2024/01/15 07:27:21;;;;;;;9.23;6.73;;;;;;;2.04;100.00;95623.97;5103108;28;20201;-61
2024/01/15 07:29:48;;;;;;;8.10;6.03;;;;;;;2.00;100.00;95626.81;5100881;28;20280;-62
2024/01/15 07:32:16;;;;;;;7.27;5.47;;;;;;;1.99;100.00;95630.38;5100044;28;20307;-61
2024/01/15 07:34:43;;;;;;;6.57;5.13;;;;;;;2.04;100.00;95637.03;5099199;28;20206;-60
2024/01/15 07:37:09;;;;;;;7.03;5.47;;;;;;;2.05;100.00;95638.69;5098884;28;20213;-59
2024/01/15 07:39:36;;;;;;;7.27;5.30;;;;;;;2.06;100.00;95630.72;5100064;28;20197;-60
2024/01/15 07:42:03;;;;;;;6.40;5.63;;;;;;;2.07;100.00;95632.41;5101007;28;20197;-60
2024/01/15 07:44:29;;;;;;;7.00;5.47;;;;;;;2.06;100.00;95624.69;5100257;28;20205;-59
2024/01/15 07:46:56;;;;;;;7.47;6.23;;;;;;;2.02;100.00;95631.91;5099723;28;20228;-60
2024/01/15 07:49:24;;;;;;;8.30;6.03;;;;;;;2.02;100.00;95629.31;5101001;28;20263;-60
2024/01/15 07:51:51;;;;;;;7.20;5.30;;;;;;;2.03;100.00;95630.13;5100509;28;20225;-60
2024/01/15 07:54:17;;;;;;;7.73;5.73;;;;;;;2.07;100.00;95640.22;5099816;28;20227;-59
2024/01/15 07:57:03;;;;;;;9.43;6.60;;;;;;;1.98;100.00;95633.91;5100587;28;20205;-61
2024/01/15 07:59:30;;;;;;;8.60;6.67;;;;;;;1.92;100.00;95643.97;5100407;28;20867;-59
2024/01/15 08:01:56;;;;;;;8.40;6.33;;;;;;;1.99;100.00;95646.00;5099129;28;20212;-60
2024/01/15 08:04:24;;;;;;;6.97;6.10;;;;;;;1.95;100.00;95649.78;5100582;28;20233;-59
2024/01/15 08:06:51;;;;;;;8.70;6.90;;;;;;;1.95;100.00;95655.00;5099554;28;20231;-59
2024/01/15 08:09:18;;;;;;;9.43;7.20;;;;;;;1.89;100.00;95652.88;5102307;28;20519;-59
2024/01/15 08:11:45;;;;;;;11.23;6.77;;;;;;;1.99;100.00;95656.44;5100464;28;20225;-60
2024/01/15 08:14:13;;;;;;;11.20;6.63;;;;;;;1.95;100.00;95654.16;5100442;28;20201;-60
2024/01/15 08:16:40;;;;;;;10.87;7.07;;;;;;;1.93;100.00;95662.13;5101315;28;20588;-60
2024/01/15 08:19:07;;;;;;;10.57;6.60;;;;;;;2.00;100.00;95659.88;5100799;28;20203;-59
2024/01/15 08:21:35;;;;;;;9.20;6.90;;;;;;;1.96;100.00;95659.28;5105089;28;20207;-60
2024/01/15 08:24:05;;;;;;;8.97;6.70;;;;;;;2.00;100.00;95647.69;5105170;28;20237;-60
2024/01/15 08:26:32;;;;;;;9.00;6.27;;;;;;;2.02;100.00;95644.13;5103637;28;20284;-60
2024/01/15 08:28:59;;;;;;;8.77;6.27;;;;;;;2.05;100.00;95651.72;5100049;28;20637;-59
2024/01/15 08:31:26;;;;;;;7.97;6.23;;;;;;;2.05;100.00;95656.94;5100018;28;20253;-61
2024/01/15 08:33:52;;;;;;;8.63;6.70;;;;;;;2.03;100.00;95659.66;5101027;28;20205;-59
2024/01/15 08:36:19;;;;;;;9.33;6.60;;;;;;;2.05;100.00;95644.75;5100078;28;20202;-61
2024/01/15 08:38:47;;;;;;;11.17;6.63;;;;;;;1.93;100.00;95648.25;5100536;28;20325;-60
2024/01/15 08:41:14;;;;;;;8.83;6.87;;;;;;;1.99;100.00;95646.00;5099914;28;20212;-59
2024/01/15 08:43:41;;;;;;;9.93;7.53;;;;;;;2.06;100.00;95650.75;5100595;28;20206;-59
2024/01/15 08:46:07;;;;;;;14.70;9.90;;;;;;;2.06;100.00;95666.41;5100749;28;20206;-59
2024/01/15 08:48:34;;;;;;;11.70;8.60;;;;;;;2.05;100.00;95665.59;5104126;27;20568;-60
2024/01/15 08:51:01;;;;;;;11.23;7.47;;;;;;;2.05;100.00;95669.97;5103753;28;20280;-60
2024/01/15 08:53:27;;;;;;;9.67;6.87;;;;;;;2.06;100.00;95666.41;5104014;28;20292;-59
2024/01/15 08:55:55;;;;;;;10.33;7.87;;;;;;;2.05;100.00;95667.38;5105171;28;20406;-60
2024/01/15 08:58:24;;;;;;;9.73;7.07;;;;;;;2.14;100.00;95669.28;5105279;28;20222;-60
2024/01/15 09:00:51;;;;;;;9.17;6.93;;;;;;;2.18;100.00;95670.72;5105042;28;20597;-60
2024/01/15 09:03:17;;;;;;;9.30;7.50;;;;;;;2.20;100.00;95668.81;5105402;27;20287;-60
2024/01/15 09:05:44;;;;;;;11.50;8.43;;;;;;;2.18;100.00;95665.50;5103469;28;20319;-60
2024/01/15 09:08:13;;;;;;;11.40;8.07;;;;;;;2.20;100.00;95663.59;5104316;27;20621;-61
2024/01/15 09:10:40;;;;;;;8.43;6.60;;;;;;;2.20;100.00;95653.97;5103755;28;20201;-60
2024/01/15 09:13:10;;;;;;;8.10;6.40;;;;;;;2.25;100.00;95656.25;5104527;27;20320;-61
2024/01/15 09:15:37;;;;;;;7.60;6.13;;;;;;;2.18;100.00;95655.91;5102398;27;20202;-60
2024/01/15 09:18:07;;;;;;;6.87;5.90;;;;;;;2.21;100.00;95657.44;5104014;28;20201;-61
2024/01/15 09:20:34;;;;;;;9.23;6.90;;;;;;;2.23;100.00;95663.38;5086361;28;20197;-60
2024/01/15 09:23:00;;;;;;;9.20;6.67;;;;;;;2.18;100.00;95660.28;5103521;28;20289;-61
2024/01/15 09:25:27;;;;;;;8.30;6.73;;;;;;;2.23;100.00;95658.16;5102439;28;20294;-60
2024/01/15 09:27:54;;;;;;;8.93;7.23;;;;;;;2.30;100.00;95654.13;5103711;27;20201;-60
2024/01/15 09:30:22;;;;;;;8.07;6.00;;;;;;;2.38;100.00;95649.16;5110274;28;20338;-61
2024/01/15 09:32:48;;;;;;;8.00;5.90;;;;;;;2.27;98.32;95649.13;5112333;28;20240;-61
2024/01/15 09:35:15;;;;;;;8.23;5.83;;;;;;;2.29;100.00;95650.69;5107764;27;20300;-61
2024/01/15 09:37:42;;;;;;;8.40;6.03;;;;;;;2.29;100.00;95653.31;5102765;28;20285;-60
2024/01/15 09:40:14;;;;;;;5.97;5.10;;;;;;;2.37;100.00;95650.13;5103466;28;20209;-61
2024/01/15 09:42:41;;;;;;;6.23;4.43;;;;;;;2.34;99.72;95645.09;5102648;28;20197;-61
2024/01/15 09:45:09;;;;;;;7.00;5.33;;;;;;;2.33;94.20;95644.31;5103692;28;20645;-61
2024/01/15 09:47:38;;;;;;;4.90;4.40;;;;;;;2.48;93.52;95647.47;5102241;28;20295;-61
2024/01/15 09:50:05;;;;;;;6.27;4.80;;;;;;;2.59;91.70;95642.28;5103454;28;20657;-61
2024/01/15 09:52:32;;;;;;;5.67;4.77;;;;;;;2.47;94.03;95645.84;5105098;27;20227;-61
2024/01/15 09:54:59;;;;;;;4.63;4.23;;;;;;;2.48;95.01;95642.25;5105148;28;20224;-61
2024/01/15 09:57:26;;;;;;;5.17;4.50;;;;;;;2.48;93.19;95645.72;5104900;28;20216;-61
2024/01/15 09:59:53;;;;;;;7.90;4.77;;;;;;;2.46;91.63;95639.78;5103039;27;20205;-61
2024/01/15 10:02:19;;;;;;;4.77;4.33;;;;;;;2.47;92.16;95635.41;5102913;28;20212;-57
2024/01/15 10:04:48;;;;;;;4.40;4.00;;;;;;;2.46;95.26;95649.41;5103719;28;20288;-56
2024/01/15 10:07:16;;;;;;;5.00;4.50;;;;;;;2.55;92.74;95646.06;5103027;28;20586;-60
2024/01/15 10:09:43;;;;;;;5.23;4.33;;;;;;;2.53;96.09;95640.16;5103188;28;20197;-61
2024/01/15 10:12:10;;;;;;;5.47;4.87;;;;;;;2.59;95.21;95644.88;5103912;27;20225;-60
2024/01/15 10:14:39;;;;;;;5.90;4.80;;;;;;;2.53;92.93;95634.09;5103017;27;20193;-60
2024/01/15 10:17:14;;;;;;;6.67;4.70;;;;;;;2.49;93.24;95626.50;5101778;28;20611;-60
2024/01/15 10:19:41;;;;;;;6.90;4.70;;;;;;;2.47;93.60;95630.19;5103332;27;20213;-60
2024/01/15 10:22:10;;;;;;;5.57;4.47;;;;;;;2.48;92.71;95631.81;5102586;28;20212;-61
2024/01/15 10:24:37;;;;;;;4.43;4.07;;;;;;;2.56;91.75;95623.41;5101125;27;20209;-60
2024/01/15 10:27:07;;;;;;;8.07;4.93;;;;;;;2.69;91.22;95624.13;5101927;28;20614;-60
2024/01/15 10:29:39;;;;;;;8.63;4.90;;;;;;;2.71;93.07;95617.84;5101079;28;20209;-59
2024/01/15 10:32:08;;;;;;;5.50;4.57;;;;;;;2.77;95.06;95612.13;5101816;28;20214;-60
2024/01/15 10:34:39;;;;;;;5.23;4.10;;;;;;;2.77;93.76;95606.06;5102615;28;20617;-60
2024/01/15 10:37:09;;;;;;;6.63;4.60;;;;;;;2.83;92.96;95598.59;5103887;27;20198;-59
2024/01/15 10:39:35;;;;;;;5.77;4.87;;;;;;;2.81;94.46;95597.88;5101253;28;20300;-60
2024/01/15 10:42:01;;;;;;;6.23;4.90;;;;;;;2.84;94.02;95595.03;5101425;28;20309;-61
2024/01/15 10:44:28;;;;;;;5.00;4.50;;;;;;;2.84;93.52;95576.75;5101315;28;20725;-63
2024/01/15 10:46:56;;;;;;;5.47;4.70;;;;;;;2.90;93.17;95571.06;5101689;28;20708;-61
2024/01/15 10:49:25;;;;;;;5.97;4.53;;;;;;;2.93;90.58;95568.19;5102530;28;20205;-61
2024/01/15 10:51:53;;;;;;;5.33;4.43;;;;;;;2.93;92.70;95576.03;5101452;28;20217;-61
2024/01/15 10:54:23;;;;;;;6.63;4.77;;;;;;;2.97;91.19;95569.63;5100520;28;20300;-63
2024/01/15 10:56:51;;;;;;;6.93;5.10;;;;;;;3.03;90.63;95575.28;5102674;28;21434;-62
2024/01/15 10:59:17;;;;;;;6.43;5.00;;;;;;;3.01;91.61;95573.63;5102785;27;20282;-64
2024/01/15 11:01:46;;;;;;;5.47;4.80;;;;;;;3.05;91.77;95573.41;5101916;28;20527;-63
2024/01/15 11:04:16;;;;;;;7.37;5.50;;;;;;;3.05;90.31;95563.75;5101641;28;20197;-64
2024/01/15 11:06:44;;;;;;;5.57;5.00;;;;;;;3.13;90.44;95563.13;5102514;27;20236;-64
2024/01/15 11:09:11;;;;;;;6.07;4.37;;;;;;;3.12;91.28;95564.91;5085131;28;20268;-63
2024/01/15 11:11:42;;;;;;;6.10;5.03;;;;;;;3.11;93.04;95563.28;5102245;28;20212;-63
2024/01/15 11:14:10;;;;;;;6.13;5.00;;;;;;;3.12;92.54;95564.13;5102409;28;20197;-63
2024/01/15 11:17:00;;;;;;;4.60;4.20;;;;;;;3.12;92.55;95564.91;5099629;28;21516;-64
2024/01/15 11:19:27;;;;;;;5.40;4.60;;;;;;;3.21;91.37;95550.28;5096063;28;20209;-67
2024/01/15 11:21:55;;;;;;;5.57;4.70;;;;;;;3.34;97.21;95559.59;5103046;28;20223;-63
2024/01/15 11:24:36;;;;;;;5.57;5.03;;;;;;;3.52;94.68;95562.50;5103519;28;20634;-62
2024/01/15 11:27:05;;;;;;;5.63;4.93;;;;;;;3.49;92.63;95557.53;5102052;28;20319;-64